Latest Weather Observations for Ballarat

IDV60801

Issued at 4:32 pm EST Monday 26 September 2016 (issued every 30 minutes, with the page automatically refreshed every 10 minutes)

About weather observations | Map of weather stations | Latest weather observations for VIC | Other Formats
Station Details ID: 089002 Name: BALLARAT AERODROME Lat: -37.51 Lon: 143.79 Height: 435.2 m
Data from the previous 72 hours. | See also: Recent months at Ballarat
Date/Time
EST
Temp
°C
App
Temp
°C
Dew
Point
°C
Rel
Hum
%
Delta-T
°C
Wind Press
QNH
hPa
Press
MSL
hPa
Rain since
9am
mm
Dir  Spd
km/h
Gust
km/h
Spd
kts
Gust
kts
26/04:30pm 9.1 5.6 7.2 88 0.9 WNW 15 30 8 16 1008.9 1009.1 0.8
26/04:00pm 9.0 5.7 7.9 93 0.5 WNW 15 20 8 11 1008.7 1008.9 0.0
26/03:30pm 11.1 6.0 6.0 71 2.4 NNW 22 32 12 17 1008.8 1009.0 0.0
26/03:00pm 11.9 6.5 6.4 69 2.7 N 24 32 13 17 1009.0 1009.2 0.0
26/02:30pm 11.9 5.7 6.0 67 2.8 NNW 28 41 15 22 1009.3 1009.5 0.0
26/02:00pm 10.4 4.5 7.3 81 1.5 NNW 28 35 15 19 1009.7 1010.0 0.0
26/01:30pm 12.9 7.1 6.3 64 3.2 NNW 26 35 14 19 1009.9 1010.2 0.0
26/01:00pm 12.2 6.0 6.3 67 2.9 NNW 28 33 15 18 1010.4 1010.7 0.0
26/12:30pm 11.9 6.0 6.0 67 2.8 NNW 26 33 14 18 1010.7 1011.0 0.0
26/12:00pm 11.5 5.7 6.4 71 2.5 NNW 26 35 14 19 1011.0 1011.2 0.0
26/11:30am 12.2 6.5 6.9 70 2.6 NNW 26 33 14 18 1011.4 1011.6 0.0
26/11:00am 12.2 6.5 6.5 68 2.8 NNW 26 35 14 19 1011.8 1012.1 0.0
26/10:30am 10.5 5.0 5.7 72 2.3 NNW 24 32 13 17 1012.1 1012.4 0.0
26/10:00am 11.4 7.1 7.7 78 1.8 NNW 20 26 11 14 1012.2 1012.5 0.0
26/09:30am 10.9 6.8 8.0 82 1.4 N 19 28 10 15 1012.5 1012.8 0.0
26/09:00am 9.9 6.6 9.6 98 0.2 NNW 17 22 9 12 1012.6 1012.9 0.8
26/08:30am 8.4 4.7 8.1 98 0.1 N 17 22 9 12 1012.6 1012.9 0.8
26/08:00am 7.9 4.9 7.6 98 0.1 N 13 19 7 10 1012.4 1012.7 0.8
26/07:30am 7.0 3.8 7.0 100 0.0 NNE 13 17 7 9 1012.6 1012.9 0.8
26/07:00am 5.7 3.0 5.7 100 0.0 NNE 9 11 5 6 1012.7 1013.0 0.8
26/06:30am 4.0 1.5 4.0 100 0.0 NE 6 7 3 4 1012.7 1013.0 0.8
26/06:00am 3.9 1.4 3.9 100 0.0 NNE 6 7 3 4 1012.4 1012.7 0.8
26/05:30am 4.1 0.3 4.1 100 0.0 N 13 15 7 8 1012.4 1012.7 0.8
26/05:24am 4.2 0.8 4.2 100 0.0 N 11 13 6 7 1012.4 1012.7 0.8
26/05:00am 4.6 2.3 4.6 100 0.0 N 6 9 3 5 1012.3 1012.6 0.4
26/04:50am 4.8 3.6 4.8 100 0.0 CALM 0 0 0 0 1012.3 1012.6 0.4
26/04:30am 5.5 4.5 5.5 100 0.0 CALM 0 0 0 0 1012.2 1012.5 0.4
26/04:00am 5.9 3.6 5.9 100 0.0 N 7 9 4 5 1012.1 1012.4 0.4
26/03:30am 6.2 4.0 6.2 100 0.0 N 7 9 4 5 1012.2 1012.5 0.4
26/03:00am 6.7 4.2 6.7 100 0.0 N 9 13 5 7 1012.3 1012.6 0.4
26/02:30am 6.7 5.9 6.7 100 0.0 CALM 0 0 0 0 1012.6 1012.9 0.4
26/02:00am 6.9 4.9 6.9 100 0.0 N 7 9 4 5 1012.9 1013.2 0.4
26/01:30am 7.1 3.6 7.1 100 0.0 WNW 15 19 8 10 1013.3 1013.5 0.4
26/01:00am 7.2 4.4 7.1 99 0.0 NW 11 15 6 8 1013.6 1013.9 0.2
26/12:30am 7.1 4.7 7.0 99 0.0 N 9 9 5 5 1013.5 1013.7 0.0
26/12:00am 7.4 5.4 7.1 98 0.1 N 7 9 4 5 1013.3 1013.5 0.0
 
Date/Time
EST
Temp
°C
App
Temp
°C
Dew
Point
°C
Rel
Hum
%
Delta-T
°C
Wind Press
QNH
hPa
Press
MSL
hPa
Rain since
9am
mm
Dir  Spd
km/h
Gust
km/h
Spd
kts
Gust
kts
25/11:30pm 7.7 7.1 7.4 98 0.1 CALM 0 0 0 0 1013.5 1013.7 0.0
25/11:00pm 7.8 7.1 7.1 95 0.3 CALM 0 6 0 3 1013.7 1014.0 0.0
25/10:30pm 8.0 5.9 6.5 90 0.7 SE 7 7 4 4 1013.7 1014.0 0.0
25/10:00pm 8.4 6.2 6.2 86 1.0 S 7 9 4 5 1014.0 1014.3 0.0
25/09:30pm 8.5 7.3 6.3 86 1.0 S 2 7 1 4 1014.0 1014.3 0.0
25/09:00pm 8.7 6.6 5.6 81 1.4 SSW 6 9 3 5 1014.0 1014.3 0.0
25/08:30pm 8.5 7.5 5.8 83 1.3 CALM 0 0 0 0 1013.8 1014.1 0.0
25/08:00pm 8.6 6.4 5.5 81 1.4 SSW 6 7 3 4 1013.7 1014.0 0.0
25/07:30pm 8.6 6.3 5.5 81 1.4 SSW 7 11 4 6 1013.6 1013.9 0.0
25/07:00pm 8.6 5.9 5.5 81 1.4 SW 9 11 5 6 1013.1 1013.4 0.0
25/06:30pm 8.6 5.8 5.2 79 1.6 WSW 9 13 5 7 1012.7 1013.0 0.0
25/06:00pm 8.8 5.2 5.0 77 1.7 WSW 13 17 7 9 1012.4 1012.7 0.0
25/05:30pm 9.9 5.5 4.5 69 2.5 WSW 17 22 9 12 1012.0 1012.3 0.0
25/05:00pm 10.3 5.5 4.9 69 2.5 WSW 19 24 10 13 1011.7 1012.0 0.0
25/04:30pm 11.1 6.3 4.6 64 3.0 WSW 19 26 10 14 1011.6 1011.8 0.0
25/04:00pm 10.1 5.8 5.1 71 2.3 WSW 17 22 9 12 1011.6 1011.8 0.0
25/03:30pm 10.2 5.6 5.6 73 2.2 WSW 19 26 10 14 1011.6 1011.8 0.0
25/03:00pm 11.3 6.4 4.3 62 3.2 WSW 19 30 10 16 1011.5 1011.7 0.0
25/02:30pm 10.7 4.6 5.0 68 2.7 WSW 26 33 14 18 1011.8 1012.1 0.0
25/02:00pm 11.4 5.0 3.2 57 3.7 W 26 37 14 20 1011.6 1011.8 0.0
25/01:30pm 10.5 5.1 4.6 67 2.7 WSW 22 30 12 16 1011.8 1012.1 0.0
25/01:00pm 10.2 4.5 4.8 69 2.5 WSW 24 33 13 18 1011.9 1012.2 0.0
25/12:30pm 10.8 4.8 3.4 60 3.3 WSW 24 35 13 19 1012.0 1012.3 0.0
25/12:00pm 10.0 5.0 4.4 68 2.6 SW 20 30 11 16 1012.1 1012.4 0.0
25/11:30am 9.9 4.4 3.9 66 2.7 WSW 22 33 12 18 1012.1 1012.4 0.0
25/11:00am 9.4 3.4 3.4 66 2.7 WSW 24 33 13 18 1012.0 1012.3 0.0
25/10:30am 8.8 2.8 3.6 70 2.3 WSW 24 37 13 20 1012.0 1012.3 0.0
25/10:00am 8.4 3.0 4.4 76 1.8 WSW 22 32 12 17 1012.1 1012.4 0.0
25/09:30am 8.3 2.6 5.1 80 1.5 WSW 24 33 13 18 1011.9 1012.2 0.0
25/09:00am 8.1 3.0 6.1 87 0.9 WSW 22 33 12 18 1011.7 1012.0 4.6
25/08:30am 7.0 2.0 6.4 96 0.3 WSW 22 32 12 17 1011.3 1011.5 4.6
25/08:00am 6.0 1.8 5.7 98 0.1 WSW 17 22 9 12 1010.9 1011.1 4.6
25/07:30am 5.2 2.0 4.9 98 0.1 WSW 11 17 6 9 1010.6 1010.9 4.6
25/07:00am 4.5 1.2 4.4 99 0.0 WSW 11 17 6 9 1010.3 1010.6 4.6
25/06:30am 4.1 0.7 4.0 99 0.0 SW 11 15 6 8 1010.0 1010.3 4.6
25/06:00am 4.3 1.3 4.3 100 0.0 SW 9 11 5 6 1009.6 1009.8 4.6
25/05:30am 4.5 1.9 4.4 99 0.0 SW 7 11 4 6 1009.4 1009.6 4.6
25/05:05am 5.1 1.9 5.0 99 0.0 SW 11 17 6 9 1009.1 1009.3 4.6
25/05:00am 5.1 1.9 5.0 99 0.0 SW 11 17 6 9 1009.1 1009.3 4.6
25/04:30am 5.9 2.5 5.8 99 0.0 SW 13 17 7 9 1008.8 1009.0 4.6
25/04:28am 5.9 2.5 5.8 99 0.0 WSW 13 19 7 10 1008.8 1009.0 4.6
25/04:18am 6.1 2.0 6.0 99 0.0 SW 17 22 9 12 1008.8 1009.0 4.6
25/04:00am 6.7 2.3 6.6 99 0.0 WSW 19 28 10 15 1008.5 1008.7 4.6
25/03:57am 6.8 2.8 6.7 99 0.0 WSW 17 24 9 13 1008.4 1008.6 4.6
25/03:33am 6.9 3.7 6.9 100 0.0 SW 13 19 7 10 1008.2 1008.5 4.6
25/03:30am 7.0 3.8 7.0 100 0.0 SW 13 22 7 12 1008.2 1008.5 4.6
25/03:00am 6.8 2.8 6.8 100 0.0 WSW 17 20 9 11 1007.9 1008.2 4.6
25/02:30am 7.2 3.3 7.1 99 0.0 WSW 17 24 9 13 1007.8 1008.1 4.6
25/02:00am 7.4 4.3 7.3 99 0.0 WSW 13 19 7 10 1007.8 1008.1 4.6
25/01:30am 7.8 4.8 7.7 99 0.0 SW 13 20 7 11 1007.7 1008.0 4.6
25/01:00am 8.1 5.2 8.1 100 0.0 SW 13 19 7 10 1007.7 1008.0 4.6
25/12:50am 8.2 4.9 8.2 100 0.0 SW 15 20 8 11 1007.6 1007.8 4.6
25/12:30am 8.4 5.2 8.4 100 0.0 WSW 15 20 8 11 1007.5 1007.7 4.6
25/12:00am 8.5 5.3 8.5 100 0.0 WSW 15 20 8 11 1007.3 1007.5 4.6
 
Date/Time
EST
Temp
°C
App
Temp
°C
Dew
Point
°C
Rel
Hum
%
Delta-T
°C
Wind Press
QNH
hPa
Press
MSL
hPa
Rain since
9am
mm
Dir  Spd
km/h
Gust
km/h
Spd
kts
Gust
kts
24/11:30pm 8.7 5.2 8.7 100 0.0 WSW 17 24 9 13 1007.1 1007.3 4.6
24/11:25pm 8.7 5.2 8.7 100 0.0 WSW 17 24 9 13 1007.1 1007.3 4.6
24/11:00pm 9.0 5.0 9.0 100 0.0 WSW 20 33 11 18 1007.1 1007.3 4.2
24/10:39pm 9.7 6.1 9.7 100 0.0 N 19 22 10 12 1006.6 1006.8 2.6
24/10:30pm 9.7 6.4 9.7 100 0.0 N 17 22 9 12 1006.6 1006.8 2.2
24/10:00pm 9.8 6.9 9.8 100 0.0 N 15 20 8 11 1006.8 1007.0 1.6
24/09:47pm 9.8 6.2 9.8 100 0.0 N 19 24 10 13 1006.8 1007.0 1.4
24/09:30pm 9.7 6.1 9.7 100 0.0 N 19 26 10 14 1006.9 1007.1 1.0
24/09:00pm 9.7 5.9 9.7 100 0.0 N 20 28 11 15 1006.8 1007.0 0.8
24/08:30pm 9.9 5.7 9.9 100 0.0 N 22 32 12 17 1006.6 1006.8 0.6
24/08:00pm 9.8 5.2 9.7 99 0.1 N 24 32 13 17 1006.5 1006.7 0.2
24/07:30pm 9.7 5.9 9.7 100 0.0 N 20 28 11 15 1006.4 1006.6 0.2
24/07:02pm 9.9 5.0 9.9 100 0.0 N 26 33 14 18 1006.3 1006.5 0.2
24/07:00pm 9.9 4.6 9.9 100 0.0 N 28 33 15 18 1006.3 1006.5 0.2
24/06:46pm 10.1 5.6 10.1 100 0.0 N 24 32 13 17 1006.3 1006.5 0.2
24/06:30pm 10.1 5.6 10.0 99 0.1 NNE 24 32 13 17 1006.2 1006.4 0.2
24/06:00pm 10.4 5.2 10.1 98 0.2 N 28 32 15 17 1006.1 1006.3 0.0
24/05:30pm 11.2 6.2 10.9 98 0.2 N 28 37 15 20 1006.2 1006.4 0.0
24/05:00pm 12.1 7.3 10.2 88 1.0 N 26 35 14 19 1005.8 1006.1 0.0
24/04:30pm 12.6 7.6 9.4 81 1.7 N 26 33 14 18 1005.6 1005.8 0.0
24/04:00pm 12.8 7.3 9.3 79 1.8 N 28 35 15 19 1005.5 1005.7 0.0
24/03:30pm 12.6 7.5 9.2 80 1.8 NNE 26 32 14 17 1005.5 1005.7 0.0
24/03:00pm 12.2 6.9 9.8 85 1.3 N 28 39 15 21 1006.1 1006.3 0.0
24/02:30pm 13.1 6.8 9.0 76 2.1 N 32 41 17 22 1006.4 1006.6 0.0
24/02:00pm 13.7 7.2 9.0 73 2.4 N 33 44 18 24 1006.4 1006.6 0.0
24/01:30pm 13.5 7.2 9.0 74 2.3 N 32 41 17 22 1006.4 1006.6 0.0
24/01:00pm 13.2 6.9 8.9 75 2.2 N 32 43 17 23 1006.7 1006.9 0.0
24/12:30pm 13.9 7.6 8.9 72 2.6 N 32 43 17 23 1006.8 1007.0 0.0
24/12:00pm 13.8 6.9 9.0 73 2.5 N 35 43 19 23 1006.9 1007.1 0.0
24/11:30am 14.4 7.2 9.2 71 2.7 N 37 46 20 25 1007.6 1007.8 0.0
24/11:00am 13.7 6.7 8.3 70 2.8 N 35 46 19 25 1007.8 1008.1 0.0
24/10:30am 13.5 6.7 9.4 76 2.1 N 35 44 19 24 1008.1 1008.4 0.0
24/10:00am 12.4 5.6 9.2 81 1.7 N 35 43 19 23 1008.2 1008.5 0.0
24/09:30am 11.6 5.2 9.2 85 1.2 N 33 43 18 23 1008.5 1008.7 0.0
24/09:00am 11.2 5.0 9.3 88 1.0 NNE 32 41 17 22 1008.8 1009.0 0.2
24/08:30am 10.3 5.7 9.8 97 0.3 NNE 24 32 13 17 1009.2 1009.4 0.2
24/08:00am 9.3 4.5 8.7 96 0.3 NNE 24 32 13 17 1009.2 1009.4 0.2
24/07:30am 8.7 4.5 8.4 98 0.1 NNE 20 30 11 16 1009.4 1009.6 0.2
24/07:00am 7.7 3.5 7.4 98 0.1 NNE 19 28 10 15 1009.6 1009.8 0.2
24/06:30am 6.5 2.4 6.4 99 0.0 NNE 17 22 9 12 1009.7 1010.0 0.2
24/06:00am 6.4 2.3 6.3 99 0.0 NNE 17 20 9 11 1009.3 1009.5 0.2
24/05:30am 6.2 1.7 6.1 99 0.0 NNE 19 22 10 12 1008.9 1009.1 0.2
24/05:00am 5.3 1.4 5.2 99 0.0 N 15 17 8 9 1009.2 1009.4 0.2
24/04:30am 6.7 3.4 6.4 98 0.1 N 13 17 7 9 1009.3 1009.5 0.2
24/04:00am 7.2 3.3 7.1 99 0.0 NNE 17 20 9 11 1009.1 1009.3 0.2
24/03:30am 7.0 3.1 6.9 99 0.0 N 17 20 9 11 1009.2 1009.4 0.2
24/03:00am 7.2 2.9 7.1 99 0.0 N 19 20 10 11 1009.5 1009.7 0.2
24/02:30am 7.3 3.0 7.2 99 0.0 N 19 22 10 12 1009.8 1010.1 0.2
24/02:00am 6.7 3.1 6.6 99 0.0 NNW 15 17 8 9 1010.1 1010.4 0.2
24/01:30am 7.4 3.2 7.4 100 0.0 N 19 22 10 12 1010.1 1010.4 0.2
24/01:00am 6.9 4.1 6.9 100 0.0 N 11 15 6 8 1010.5 1010.8 0.2
24/12:30am 7.3 4.2 7.2 99 0.0 N 13 17 7 9 1010.7 1011.0 0.2
24/12:00am 7.8 4.4 7.8 100 0.0 N 15 17 8 9 1010.9 1011.1 0.2
 
Date/Time
EST
Temp
°C
App
Temp
°C
Dew
Point
°C
Rel
Hum
%
Delta-T
°C
Wind Press
QNH
hPa
Press
MSL
hPa
Rain since
9am
mm
Dir  Spd
km/h
Gust
km/h
Spd
kts
Gust
kts
23/11:30pm 7.8 4.4 7.8 100 0.0 N 15 19 8 10 1011.1 1011.3 0.2
23/11:00pm 7.9 3.8 7.9 100 0.0 N 19 20 10 11 1011.2 1011.4 0.2
23/10:30pm 8.0 3.9 7.9 99 0.0 N 19 22 10 12 1011.3 1011.5 0.2
23/10:00pm 8.6 5.0 8.5 99 0.0 NNE 17 19 9 10 1011.1 1011.3 0.2
23/09:30pm 8.6 5.4 8.5 99 0.0 NNE 15 19 8 10 1011.2 1011.4 0.2
23/09:00pm 9.7 7.5 9.4 98 0.2 NNE 11 17 6 9 1011.4 1011.6 0.2
23/08:30pm 9.8 7.2 9.5 98 0.2 NNE 13 17 7 9 1011.5 1011.7 0.2
23/08:00pm 10.3 7.1 10.0 98 0.2 NNE 17 22 9 12 1011.5 1011.7 0.2
23/07:30pm 10.4 7.6 10.1 98 0.2 NNE 15 19 8 10 1011.6 1011.8 0.2
23/07:00pm 11.3 8.7 10.7 96 0.3 N 15 20 8 11 1011.6 1011.8 0.2
23/06:30pm 11.8 9.0 9.9 88 1.0 NNE 15 20 8 11 1011.1 1011.3 0.2
23/06:00pm 12.2 9.3 9.8 85 1.3 NNE 15 19 8 10 1011.1 1011.3 0.2
23/05:30pm 12.8 10.4 10.0 83 1.5 N 13 15 7 8 1011.2 1011.4 0.2
23/05:00pm 13.0 9.8 9.8 81 1.7 N 17 20 9 11 1011.3 1011.5 0.2

Other Formats:

Comma delimited format used in spreadsheet applications
http://www.bom.gov.au/fwo/IDV60801/IDV60801.94852.axf

JavaScript Object Notation format (JSON) in row-major order
http://www.bom.gov.au/fwo/IDV60801/IDV60801.94852.json